Time;durP1;ratioP1;P1;durP2;ratioP2;P2;SDS_P1;SDS_P2;PMS_P1;PMS_P2;Temp;Humidity;BMP_temperature;BMP_pressure;BME280_temperature;BME280_humidity;BME280_pressure;Samples;Min_cycle;Max_cycle;Signal;HPM_P1;HPM_P2
2023/07/02 00:00:38;;;;;;;7.45;2.75;;;;;;;;;;5078827;28;20025;-79
2023/07/02 00:03:04;;;;;;;6.90;2.90;;;;;;;;;;5074018;28;20048;-81
2023/07/02 00:05:31;;;;;;;13.27;3.03;;;;;;;;;;5074508;28;20016;-81
2023/07/02 00:07:57;;;;;;;14.68;3.40;;;;;;;;;;5090015;28;20044;-79
2023/07/02 00:10:23;;;;;;;6.35;3.05;;;;;;;;;;5074812;28;20005;-83
2023/07/02 00:12:49;;;;;;;8.40;3.30;;;;;;;;;;5076836;28;20032;-81
2023/07/02 00:15:15;;;;;;;7.78;2.90;;;;;;;;;;5072373;28;20010;-80
2023/07/02 00:17:42;;;;;;;8.27;3.70;;;;;;;;;;5076604;28;20029;-80
2023/07/02 00:20:16;;;;;;;10.25;4.00;;;;;;;;;;5075069;28;20017;-82
2023/07/02 00:22:44;;;;;;;7.63;3.38;;;;;;;;;;5076450;28;20074;-81
2023/07/02 00:25:10;;;;;;;11.10;3.47;;;;;;;;;;5075403;28;20032;-80
2023/07/02 00:27:38;;;;;;;10.50;3.50;;;;;;;;;;5072831;28;20161;-83
2023/07/02 00:30:04;;;;;;;9.32;4.13;;;;;;;;;;5076062;28;20062;-82
2023/07/02 00:32:30;;;;;;;7.82;3.72;;;;;;;;;;5071668;28;20021;-82
2023/07/02 00:34:56;;;;;;;10.30;4.13;;;;;;;;;;5076374;28;20060;-82
2023/07/02 00:37:22;;;;;;;8.13;3.60;;;;;;;;;;5073782;28;20033;-81
2023/07/02 00:39:48;;;;;;;9.70;3.65;;;;;;;;;;5078624;28;20022;-81
2023/07/02 00:42:16;;;;;;;13.63;4.53;;;;;;;;;;5072243;28;20076;-80
2023/07/02 00:44:43;;;;;;;8.63;3.75;;;;;;;;;;5076979;28;20037;-81
2023/07/02 00:47:09;;;;;;;11.23;4.88;;;;;;;;;;5059705;28;20043;-83
2023/07/02 00:49:37;;;;;;;7.57;3.70;;;;;;;;;;5074451;28;20016;-81
2023/07/02 00:52:03;;;;;;;9.70;4.18;;;;;;;;;;5079280;28;20032;-80
2023/07/02 00:54:30;;;;;;;8.57;3.20;;;;;;;;;;5073168;28;20028;-81
2023/07/02 00:56:56;;;;;;;7.47;3.85;;;;;;;;;;5078309;28;21182;-80
2023/07/02 00:59:22;;;;;;;9.45;3.20;;;;;;;;;;5073202;28;20053;-83
2023/07/02 01:01:50;;;;;;;9.38;4.47;;;;;;;;;;5073469;28;20033;-80
2023/07/02 01:04:19;;;;;;;9.95;4.75;;;;;;;;;;5073010;28;20030;-82
2023/07/02 01:06:45;;;;;;;9.73;4.40;;;;;;;;;;5076545;28;20025;-81
2023/07/02 01:09:14;;;;;;;12.38;4.85;;;;;;;;;;5073519;28;20044;-81
2023/07/02 01:11:44;;;;;;;11.20;4.40;;;;;;;;;;5073784;28;20008;-83
2023/07/02 01:14:24;;;;;;;16.05;4.50;;;;;;;;;;5072049;28;20321;-84
2023/07/02 01:16:53;;;;;;;8.38;4.18;;;;;;;;;;5070644;28;20047;-81
2023/07/02 01:19:22;;;;;;;13.73;5.38;;;;;;;;;;5075500;28;20032;-80
2023/07/02 01:21:49;;;;;;;18.77;5.28;;;;;;;;;;5073951;28;20041;-81
2023/07/02 01:24:16;;;;;;;13.93;5.03;;;;;;;;;;5076574;28;20039;-82
2023/07/02 01:26:42;;;;;;;12.93;5.10;;;;;;;;;;5073962;28;20037;-82
2023/07/02 01:29:18;;;;;;;16.00;5.93;;;;;;;;;;5074403;28;20017;-83
2023/07/02 01:31:50;;;;;;;14.25;5.50;;;;;;;;;;5075356;28;20037;-81
2023/07/02 01:34:16;;;;;;;11.15;5.30;;;;;;;;;;5070042;28;20029;-82
2023/07/02 01:36:44;;;;;;;11.45;5.75;;;;;;;;;;5071732;28;20021;-83
2023/07/02 01:39:10;;;;;;;19.50;7.43;;;;;;;;;;5073541;28;20040;-81
2023/07/02 01:41:46;;;;;;;12.40;6.35;;;;;;;;;;5076884;28;20257;-81
2023/07/02 01:44:12;;;;;;;14.43;6.10;;;;;;;;;;5075806;28;20017;-83
2023/07/02 01:46:38;;;;;;;14.65;6.65;;;;;;;;;;5075950;28;20100;-81
2023/07/02 01:49:04;;;;;;;15.05;7.50;;;;;;;;;;5073983;28;20032;-80
2023/07/02 01:51:30;;;;;;;21.15;7.35;;;;;;;;;;5073249;28;20025;-79
2023/07/02 01:53:57;;;;;;;17.05;7.28;;;;;;;;;;5072543;28;20040;-81
2023/07/02 01:56:23;;;;;;;16.75;8.00;;;;;;;;;;5071639;28;20025;-81
2023/07/02 01:58:49;;;;;;;20.50;7.45;;;;;;;;;;5069353;28;20394;-82
2023/07/02 02:01:15;;;;;;;16.75;7.63;;;;;;;;;;5076104;28;20025;-81
2023/07/02 02:03:41;;;;;;;16.35;8.07;;;;;;;;;;5074132;28;20036;-81
2023/07/02 02:06:08;;;;;;;23.13;8.80;;;;;;;;;;5074016;28;20036;-82
2023/07/02 02:08:34;;;;;;;19.77;8.15;;;;;;;;;;5075802;28;20040;-83
2023/07/02 02:11:00;;;;;;;27.80;9.45;;;;;;;;;;5073087;28;20024;-81
2023/07/02 02:13:31;;;;;;;19.17;8.68;;;;;;;;;;5071813;28;20598;-80
2023/07/02 02:15:58;;;;;;;26.08;9.63;;;;;;;;;;5069236;28;20008;-82
2023/07/02 02:18:26;;;;;;;19.88;9.18;;;;;;;;;;5073671;28;20116;-83
2023/07/02 02:20:52;;;;;;;19.45;9.05;;;;;;;;;;5073617;28;20020;-80
2023/07/02 02:23:24;;;;;;;18.67;8.38;;;;;;;;;;5071285;28;20088;-79
2023/07/02 02:25:50;;;;;;;21.50;9.75;;;;;;;;;;5073685;28;20055;-83
2023/07/02 02:28:16;;;;;;;18.77;9.95;;;;;;;;;;5074433;28;20093;-80
2023/07/02 02:30:45;;;;;;;22.48;10.45;;;;;;;;;;5071965;28;20021;-80
2023/07/02 02:33:11;;;;;;;18.38;9.10;;;;;;;;;;5068470;28;20005;-80
2023/07/02 02:35:37;;;;;;;24.90;10.20;;;;;;;;;;5072473;28;20045;-81
2023/07/02 02:38:09;;;;;;;21.75;9.90;;;;;;;;;;5075111;28;20585;-80
2023/07/02 02:40:36;;;;;;;23.60;9.77;;;;;;;;;;5075034;28;20045;-81
2023/07/02 02:43:02;;;;;;;19.67;9.90;;;;;;;;;;5071920;28;20042;-82
2023/07/02 02:45:29;;;;;;;20.92;10.00;;;;;;;;;;5075423;28;20032;-82
2023/07/02 02:47:55;;;;;;;20.77;9.80;;;;;;;;;;5067443;28;20045;-82
2023/07/02 02:50:24;;;;;;;21.92;10.20;;;;;;;;;;5079599;28;20016;-81
2023/07/02 02:52:50;;;;;;;22.10;10.98;;;;;;;;;;5081551;28;20035;-80
2023/07/02 02:55:16;;;;;;;22.33;10.25;;;;;;;;;;5076199;28;20036;-81
2023/07/02 02:57:43;;;;;;;23.02;11.18;;;;;;;;;;5078798;28;20101;-82
2023/07/02 03:00:09;;;;;;;23.30;10.45;;;;;;;;;;5080178;28;20032;-81
2023/07/02 03:02:35;;;;;;;23.65;11.70;;;;;;;;;;5079762;28;20032;-81
2023/07/02 03:05:04;;;;;;;22.15;10.50;;;;;;;;;;5078680;28;20025;-82
2023/07/02 03:07:30;;;;;;;24.58;10.75;;;;;;;;;;5079378;28;20009;-82
2023/07/02 03:09:59;;;;;;;25.67;10.73;;;;;;;;;;5079101;28;20032;-82
2023/07/02 03:12:28;;;;;;;28.73;11.70;;;;;;;;;;5080449;28;20017;-81
2023/07/02 03:14:55;;;;;;;30.00;12.23;;;;;;;;;;5075447;28;20048;-81
2023/07/02 03:17:24;;;;;;;22.00;11.82;;;;;;;;;;5074956;28;20034;-81
2023/07/02 03:19:53;;;;;;;27.83;11.85;;;;;;;;;;5079453;28;20036;-80
2023/07/02 03:22:19;;;;;;;23.50;11.77;;;;;;;;;;5074104;28;20032;-83
2023/07/02 03:24:45;;;;;;;24.00;11.57;;;;;;;;;;5079257;28;20041;-82
2023/07/02 03:27:11;;;;;;;22.88;12.52;;;;;;;;;;5082555;28;20046;-81
2023/07/02 03:29:38;;;;;;;32.45;12.23;;;;;;;;;;5075893;28;20012;-82
2023/07/02 03:32:05;;;;;;;27.25;12.80;;;;;;;;;;5074035;28;20042;-82
2023/07/02 03:34:31;;;;;;;25.08;12.35;;;;;;;;;;5073711;28;20017;-80
2023/07/02 03:36:57;;;;;;;25.50;12.57;;;;;;;;;;5075142;28;20025;-82
2023/07/02 03:39:24;;;;;;;33.28;12.90;;;;;;;;;;5061431;28;20041;-81
2023/07/02 03:41:51;;;;;;;25.52;12.60;;;;;;;;;;5080151;28;20021;-81
2023/07/02 03:44:19;;;;;;;25.77;12.27;;;;;;;;;;5076541;28;20033;-80
2023/07/02 03:46:45;;;;;;;26.35;12.23;;;;;;;;;;5076035;28;20067;-81
2023/07/02 03:49:12;;;;;;;31.30;13.10;;;;;;;;;;5073666;28;20029;-81
2023/07/02 03:51:38;;;;;;;25.48;13.65;;;;;;;;;;5077115;28;20021;-81
2023/07/02 03:54:06;;;;;;;28.52;12.82;;;;;;;;;;5072402;28;20021;-82
2023/07/02 03:59:17;;;;;;;29.52;14.20;;;;;;;;;;5075650;28;20054;-81
2023/07/02 04:01:43;;;;;;;27.17;13.23;;;;;;;;;;5079469;28;20033;-82
2023/07/02 04:04:11;;;;;;;32.70;14.85;;;;;;;;;;5078157;28;20025;-80
2023/07/02 04:06:37;;;;;;;29.85;13.52;;;;;;;;;;5076145;28;20021;-82
2023/07/02 04:09:06;;;;;;;28.63;13.25;;;;;;;;;;5079780;28;20057;-82
2023/07/02 04:11:36;;;;;;;33.50;14.75;;;;;;;;;;5071618;28;20192;-82
2023/07/02 04:14:02;;;;;;;28.83;12.40;;;;;;;;;;5076234;28;20025;-81
2023/07/02 04:16:31;;;;;;;27.17;12.57;;;;;;;;;;5060653;28;20041;-80
2023/07/02 04:18:57;;;;;;;33.55;14.68;;;;;;;;;;5062497;28;20536;-83
2023/07/02 04:21:23;;;;;;;29.65;12.35;;;;;;;;;;5056274;28;20053;-80
2023/07/02 04:23:49;;;;;;;29.27;14.18;;;;;;;;;;5063009;28;20033;-80
2023/07/02 04:26:15;;;;;;;33.22;14.63;;;;;;;;;;5062542;28;20139;-80
2023/07/02 04:28:42;;;;;;;33.08;14.73;;;;;;;;;;5062744;28;20025;-79
2023/07/02 04:31:08;;;;;;;29.63;14.55;;;;;;;;;;5060425;28;20060;-82
2023/07/02 04:33:37;;;;;;;32.58;15.50;;;;;;;;;;5056340;28;20033;-81
2023/07/02 04:36:03;;;;;;;30.00;15.70;;;;;;;;;;5064156;28;20092;-81
2023/07/02 04:38:29;;;;;;;27.67;14.27;;;;;;;;;;5074309;28;20040;-81
2023/07/02 04:41:01;;;;;;;37.10;15.45;;;;;;;;;;5053899;28;20044;-80
2023/07/02 04:43:31;;;;;;;38.27;17.30;;;;;;;;;;5037802;28;20030;-83
2023/07/02 04:45:57;;;;;;;35.38;16.92;;;;;;;;;;5039047;28;20033;-81
2023/07/02 04:48:25;;;;;;;34.60;16.20;;;;;;;;;;5053332;28;20041;-81
2023/07/02 04:50:51;;;;;;;37.78;16.05;;;;;;;;;;5036897;28;20029;-84
2023/07/02 04:53:20;;;;;;;32.80;16.27;;;;;;;;;;5051221;28;20033;-82
2023/07/02 04:55:46;;;;;;;36.88;17.17;;;;;;;;;;5054461;28;20038;-81
2023/07/02 04:58:13;;;;;;;40.33;15.32;;;;;;;;;;5054798;28;20727;-82
2023/07/02 05:00:39;;;;;;;35.33;16.27;;;;;;;;;;5053175;28;20018;-81
2023/07/02 05:03:05;;;;;;;32.33;16.60;;;;;;;;;;5052763;28;20017;-80
2023/07/02 05:05:34;;;;;;;37.42;16.88;;;;;;;;;;5035812;28;20037;-81
2023/07/02 05:08:00;;;;;;;36.67;17.80;;;;;;;;;;5043285;28;20036;-81
2023/07/02 05:10:26;;;;;;;39.75;17.83;;;;;;;;;;5048447;28;20009;-81
2023/07/02 05:12:52;;;;;;;32.40;15.85;;;;;;;;;;5072938;28;20041;-81
2023/07/02 05:15:19;;;;;;;38.88;17.90;;;;;;;;;;5076555;28;20037;-83
2023/07/02 05:17:45;;;;;;;34.78;16.98;;;;;;;;;;5077030;28;20041;-81
2023/07/02 05:20:11;;;;;;;37.25;16.75;;;;;;;;;;5075992;28;20024;-81
2023/07/02 05:22:37;;;;;;;34.40;17.08;;;;;;;;;;5074843;28;20033;-82
2023/07/02 05:25:03;;;;;;;38.30;17.92;;;;;;;;;;5075013;28;20088;-82
2023/07/02 05:27:29;;;;;;;43.03;18.80;;;;;;;;;;5071776;28;20025;-82
2023/07/02 05:29:59;;;;;;;37.95;16.92;;;;;;;;;;5074013;28;20024;-79
2023/07/02 05:32:26;;;;;;;38.17;19.55;;;;;;;;;;5072725;28;20025;-83
2023/07/02 05:34:53;;;;;;;41.72;18.92;;;;;;;;;;5073517;28;20021;-82
2023/07/02 05:37:22;;;;;;;37.08;17.27;;;;;;;;;;5074905;28;20018;-82
2023/07/02 05:39:48;;;;;;;34.60;18.27;;;;;;;;;;5075872;28;20077;-81
2023/07/02 05:42:17;;;;;;;40.25;18.52;;;;;;;;;;5075471;28;20021;-82
2023/07/02 05:44:43;;;;;;;45.55;19.63;;;;;;;;;;5075203;28;20052;-81
2023/07/02 05:47:09;;;;;;;40.00;18.83;;;;;;;;;;5076161;28;20016;-82
2023/07/02 05:49:35;;;;;;;35.67;19.50;;;;;;;;;;5074446;28;20044;-81
2023/07/02 05:52:01;;;;;;;39.55;20.08;;;;;;;;;;5077962;28;20033;-82
2023/07/02 05:54:27;;;;;;;39.90;20.05;;;;;;;;;;5075689;28;20091;-82
2023/07/02 05:56:53;;;;;;;46.03;19.35;;;;;;;;;;5075791;28;20021;-84
2023/07/02 05:59:19;;;;;;;42.75;18.98;;;;;;;;;;5073329;28;20030;-80
2023/07/02 06:01:45;;;;;;;43.45;20.10;;;;;;;;;;5068725;28;20112;-81
2023/07/02 06:04:12;;;;;;;43.53;19.77;;;;;;;;;;5074350;28;20033;-82
2023/07/02 06:06:38;;;;;;;39.17;20.10;;;;;;;;;;5074086;28;20059;-81
2023/07/02 06:09:04;;;;;;;41.45;18.55;;;;;;;;;;5073471;28;20032;-80
2023/07/02 06:11:30;;;;;;;43.85;18.38;;;;;;;;;;5073219;28;20045;-82
2023/07/02 06:13:58;;;;;;;47.25;20.83;;;;;;;;;;5075323;28;20039;-81
2023/07/02 06:16:25;;;;;;;44.58;20.05;;;;;;;;;;5072062;28;20051;-80
2023/07/02 06:18:52;;;;;;;43.10;20.10;;;;;;;;;;5072798;28;20061;-81
2023/07/02 06:21:19;;;;;;;38.60;18.90;;;;;;;;;;5069439;28;20029;-81
2023/07/02 06:23:45;;;;;;;44.72;19.95;;;;;;;;;;5057585;28;20101;-81
2023/07/02 06:26:11;;;;;;;42.58;19.38;;;;;;;;;;5072064;28;20036;-80
2023/07/02 06:28:38;;;;;;;44.95;17.90;;;;;;;;;;5072040;28;20033;-81
2023/07/02 06:31:04;;;;;;;35.88;19.00;;;;;;;;;;5070128;28;20041;-81
2023/07/02 06:33:30;;;;;;;39.05;17.27;;;;;;;;;;5071772;28;20032;-82
2023/07/02 06:35:59;;;;;;;38.35;18.73;;;;;;;;;;5068959;28;20037;-82
2023/07/02 06:38:25;;;;;;;40.17;19.95;;;;;;;;;;5075310;28;20021;-82
2023/07/02 06:40:55;;;;;;;37.13;19.33;;;;;;;;;;5071897;28;20024;-84
2023/07/02 06:43:21;;;;;;;35.78;17.15;;;;;;;;;;5070021;28;20021;-84
2023/07/02 06:45:47;;;;;;;42.65;17.15;;;;;;;;;;5072679;28;20452;-82
2023/07/02 06:48:17;;;;;;;41.60;18.85;;;;;;;;;;5071733;28;20096;-83
2023/07/02 06:50:45;;;;;;;45.45;19.92;;;;;;;;;;5071717;28;20038;-82
2023/07/02 06:53:11;;;;;;;38.78;17.73;;;;;;;;;;5052440;28;20503;-82
2023/07/02 06:55:37;;;;;;;39.30;19.70;;;;;;;;;;5038222;28;20075;-83
2023/07/02 06:58:12;;;;;;;42.53;18.85;;;;;;;;;;5054447;28;20111;-82
2023/07/02 07:00:39;;;;;;;43.20;19.65;;;;;;;;;;5049593;28;20045;-82
2023/07/02 07:03:44;;;;;;;39.97;18.33;;;;;;;;;;5039666;28;20041;-86
2023/07/02 07:06:13;;;;;;;39.28;17.85;;;;;;;;;;5051669;28;20172;-81
2023/07/02 07:08:39;;;;;;;46.00;18.88;;;;;;;;;;5045747;28;20096;-83
2023/07/02 07:11:07;;;;;;;42.97;17.63;;;;;;;;;;5055598;28;20029;-84
2023/07/02 07:13:46;;;;;;;;;;;;;;;;;;;;;
2023/07/02 07:19:10;;;;;;;38.75;16.73;;;;;;;;;;5049388;28;20032;-80
2023/07/02 07:21:49;;;;;;;39.53;18.13;;;;;;;;;;5048902;28;20037;-81
2023/07/02 07:24:51;;;;;;;37.35;16.10;;;;;;;;;;5054568;28;20033;-83
2023/07/02 07:27:23;;;;;;;40.72;17.02;;;;;;;;;;5070740;28;20033;-82
2023/07/02 07:30:00;;;;;;;33.77;15.03;;;;;;;;;;5078617;28;20063;-81
2023/07/02 07:32:34;;;;;;;37.22;16.67;;;;;;;;;;5073620;28;20637;-82
2023/07/02 07:35:07;;;;;;;40.92;16.02;;;;;;;;;;5073992;28;20033;-80
2023/07/02 07:37:34;;;;;;;36.13;15.45;;;;;;;;;;5072316;28;20028;-80
2023/07/02 07:40:00;;;;;;;42.50;16.60;;;;;;;;;;5067320;28;20859;-78
2023/07/02 07:42:26;;;;;;;35.70;15.32;;;;;;;;;;5048101;28;20032;-78
2023/07/02 07:45:05;;;;;;;;;;;;;;;;;;;;;
2023/07/02 07:47:52;;;;;;;31.27;12.90;;;;;;;;;;5072308;28;20045;-82
2023/07/02 07:50:18;;;;;;;32.72;13.13;;;;;;;;;;5076728;28;20036;-83
2023/07/02 07:52:51;;;;;;;32.90;13.68;;;;;;;;;;5077923;28;20034;-81
2023/07/02 07:55:20;;;;;;;31.63;14.18;;;;;;;;;;5073113;28;20067;-80
2023/07/02 07:58:02;;;;;;;34.97;13.43;;;;;;;;;;5075426;28;20049;-80
2023/07/02 08:00:42;;;;;;;31.50;13.77;;;;;;;;;;5075769;28;20044;-81
2023/07/02 08:03:24;;;;;;;31.13;12.85;;;;;;;;;;5073299;28;20037;-80
2023/07/02 08:06:01;;;;;;;;;;;;;;;;;;;;;
2023/07/02 08:08:41;;;;;;;33.33;12.85;;;;;;;;;;5076883;28;20057;-80
2023/07/02 08:11:11;;;;;;;27.85;13.93;;;;;;;;;;5076088;28;20035;-81
2023/07/02 08:13:37;;;;;;;33.40;14.02;;;;;;;;;;5078185;28;20052;-80
2023/07/02 08:16:03;;;;;;;35.22;13.48;;;;;;;;;;5074849;28;20018;-84
2023/07/02 08:18:30;;;;;;;29.98;13.23;;;;;;;;;;5076000;28;20024;-82
2023/07/02 08:20:56;;;;;;;36.03;14.77;;;;;;;;;;5070918;28;20040;-80
2023/07/02 08:23:22;;;;;;;33.70;13.85;;;;;;;;;;5075024;28;20032;-79
2023/07/02 08:26:06;;;;;;;29.20;13.85;;;;;;;;;;5073682;28;20030;-81
2023/07/02 08:28:32;;;;;;;29.67;13.52;;;;;;;;;;5075034;28;20092;-80
2023/07/02 08:30:59;;;;;;;31.73;13.23;;;;;;;;;;5073359;28;20068;-81
2023/07/02 08:33:25;;;;;;;28.25;12.32;;;;;;;;;;5065127;28;20028;-80
2023/07/02 08:35:51;;;;;;;32.33;12.55;;;;;;;;;;5070190;28;20025;-81
2023/07/02 08:38:17;;;;;;;33.13;13.82;;;;;;;;;;5068662;28;20036;-81
2023/07/02 08:40:43;;;;;;;31.25;13.63;;;;;;;;;;5073705;28;20055;-81
2023/07/02 08:43:09;;;;;;;37.58;13.48;;;;;;;;;;5071122;28;20020;-81
2023/07/02 08:45:36;;;;;;;28.45;12.77;;;;;;;;;;5073595;28;20072;-81
2023/07/02 08:48:02;;;;;;;27.73;12.25;;;;;;;;;;5068293;28;20053;-80
2023/07/02 08:50:28;;;;;;;32.33;12.57;;;;;;;;;;5072859;28;20028;-80
2023/07/02 08:52:54;;;;;;;29.60;11.68;;;;;;;;;;5077747;28;20025;-79
2023/07/02 08:55:22;;;;;;;22.10;11.18;;;;;;;;;;5073298;28;20035;-79
2023/07/02 08:57:51;;;;;;;27.90;11.75;;;;;;;;;;5073840;28;20025;-81
2023/07/02 09:00:17;;;;;;;32.40;12.80;;;;;;;;;;5068465;28;20056;-81
2023/07/02 09:02:44;;;;;;;25.80;11.48;;;;;;;;;;5070177;28;20040;-79
2023/07/02 09:05:10;;;;;;;26.98;11.80;;;;;;;;;;5070278;28;20056;-80
2023/07/02 09:07:47;;;;;;;40.72;13.07;;;;;;;;;;5072699;28;20035;-79
2023/07/02 09:10:13;;;;;;;26.88;12.32;;;;;;;;;;5068385;28;20051;-82
2023/07/02 09:12:39;;;;;;;29.23;13.02;;;;;;;;;;5074315;28;20017;-80
2023/07/02 09:15:06;;;;;;;29.58;13.80;;;;;;;;;;5073828;28;20053;-80
2023/07/02 09:17:36;;;;;;;33.20;14.43;;;;;;;;;;5069362;28;20033;-81
2023/07/02 09:20:06;;;;;;;41.85;14.50;;;;;;;;;;5073907;28;20029;-78
2023/07/02 09:22:33;;;;;;;29.75;13.73;;;;;;;;;;5072353;28;20029;-80
2023/07/02 09:24:59;;;;;;;35.05;14.98;;;;;;;;;;5070715;28;20021;-80
2023/07/02 09:27:42;;;;;;;39.75;13.60;;;;;;;;;;5069254;28;20059;-79
2023/07/02 09:30:08;;;;;;;30.85;13.35;;;;;;;;;;5072650;28;20020;-80
2023/07/02 09:32:35;;;;;;;29.75;13.63;;;;;;;;;;5073465;28;20029;-80
2023/07/02 09:35:01;;;;;;;27.90;11.90;;;;;;;;;;5069368;28;20127;-81
2023/07/02 09:37:27;;;;;;;33.55;14.05;;;;;;;;;;5071096;28;20021;-82
2023/07/02 09:39:54;;;;;;;30.60;14.05;;;;;;;;;;5071860;28;20051;-80
2023/07/02 09:42:20;;;;;;;29.85;14.07;;;;;;;;;;5069696;28;20102;-80
2023/07/02 09:44:47;;;;;;;34.08;14.55;;;;;;;;;;5071452;28;20952;-79
2023/07/02 09:47:14;;;;;;;30.33;14.70;;;;;;;;;;5072393;28;20029;-80
2023/07/02 09:49:42;;;;;;;34.92;15.75;;;;;;;;;;5069978;28;20139;-80
2023/07/02 09:52:10;;;;;;;39.65;14.70;;;;;;;;;;5073090;28;20019;-80
2023/07/02 09:54:36;;;;;;;34.13;15.07;;;;;;;;;;5070761;28;20024;-82
2023/07/02 09:57:03;;;;;;;34.83;14.85;;;;;;;;;;5075489;28;20048;-80
2023/07/02 09:59:29;;;;;;;27.48;13.90;;;;;;;;;;5071355;28;20043;-79
2023/07/02 10:01:55;;;;;;;33.92;15.05;;;;;;;;;;5071481;28;20027;-79
2023/07/02 10:04:25;;;;;;;32.03;14.30;;;;;;;;;;5073154;28;20119;-79
2023/07/02 10:07:00;;;;;;;35.83;14.63;;;;;;;;;;5079315;28;20033;-80
2023/07/02 10:09:40;;;;;;;32.95;13.98;;;;;;;;;;5078212;28;20060;-81
2023/07/02 10:12:19;;;;;;;31.17;13.75;;;;;;;;;;5073604;28;20045;-79
2023/07/02 10:14:45;;;;;;;27.27;13.27;;;;;;;;;;5074129;28;20025;-80
2023/07/02 10:17:23;;;;;;;33.90;12.23;;;;;;;;;;5072877;28;20033;-79
2023/07/02 10:19:53;;;;;;;35.33;14.10;;;;;;;;;;5071046;28;20032;-81
2023/07/02 10:22:19;;;;;;;29.02;13.55;;;;;;;;;;5069095;28;20032;-80
2023/07/02 10:24:54;;;;;;;29.60;13.10;;;;;;;;;;5068100;28;20037;-79
2023/07/02 10:27:20;;;;;;;35.33;12.65;;;;;;;;;;5061401;28;20068;-80
2023/07/02 10:29:50;;;;;;;29.05;12.48;;;;;;;;;;5054174;28;20037;-78
2023/07/02 10:32:26;;;;;;;29.70;13.45;;;;;;;;;;5059753;28;20036;-80
2023/07/02 10:34:52;;;;;;;31.33;13.18;;;;;;;;;;5063654;28;20506;-79
2023/07/02 10:37:18;;;;;;;30.20;13.55;;;;;;;;;;5057157;28;20031;-80
2023/07/02 10:39:44;;;;;;;34.70;14.05;;;;;;;;;;5065529;28;20041;-79
2023/07/02 10:42:11;;;;;;;28.23;13.57;;;;;;;;;;5070018;28;20009;-80
2023/07/02 10:44:53;;;;;;;30.08;14.25;;;;;;;;;;5070927;28;20036;-78
2023/07/02 10:47:19;;;;;;;35.25;13.05;;;;;;;;;;5064616;28;20024;-79
2023/07/02 10:49:46;;;;;;;31.67;12.82;;;;;;;;;;5067751;28;20417;-79
2023/07/02 10:52:12;;;;;;;27.60;12.75;;;;;;;;;;5069573;28;20021;-81
2023/07/02 10:54:45;;;;;;;24.95;12.00;;;;;;;;;;5072344;28;20078;-81
2023/07/02 10:57:13;;;;;;;28.42;12.93;;;;;;;;;;5057602;28;20033;-80
2023/07/02 10:59:39;;;;;;;28.55;13.82;;;;;;;;;;5066884;28;20033;-79
2023/07/02 11:02:06;;;;;;;31.02;14.10;;;;;;;;;;5060663;28;20477;-80
2023/07/02 11:04:33;;;;;;;24.00;12.68;;;;;;;;;;5065883;28;20043;-80
2023/07/02 11:06:59;;;;;;;34.30;13.07;;;;;;;;;;5069581;28;20070;-80
2023/07/02 11:09:25;;;;;;;27.35;11.57;;;;;;;;;;5069677;28;20082;-80
2023/07/02 11:11:57;;;;;;;23.13;13.05;;;;;;;;;;5074088;28;20040;-80
2023/07/02 11:14:33;;;;;;;33.13;13.18;;;;;;;;;;5074980;28;20029;-82
2023/07/02 11:17:02;;;;;;;21.50;12.25;;;;;;;;;;5074774;28;20043;-81
2023/07/02 11:19:29;;;;;;;30.98;13.05;;;;;;;;;;5073858;28;20006;-84
2023/07/02 11:21:59;;;;;;;25.83;12.38;;;;;;;;;;5072732;28;20040;-81
2023/07/02 11:24:29;;;;;;;27.00;13.15;;;;;;;;;;5073171;28;20025;-82
2023/07/02 11:26:56;;;;;;;28.17;12.57;;;;;;;;;;5081989;28;20055;-81
2023/07/02 11:29:22;;;;;;;30.17;12.57;;;;;;;;;;5079379;28;20032;-80
2023/07/02 11:31:48;;;;;;;28.38;12.43;;;;;;;;;;5077604;28;20028;-81
2023/07/02 11:34:14;;;;;;;23.70;12.73;;;;;;;;;;5073774;28;20661;-81
2023/07/02 11:36:41;;;;;;;29.73;12.60;;;;;;;;;;5074593;28;20200;-80
2023/07/02 11:39:07;;;;;;;26.73;12.25;;;;;;;;;;5072558;28;20052;-81
2023/07/02 11:41:40;;;;;;;32.72;13.88;;;;;;;;;;5074176;28;20024;-80
2023/07/02 11:44:06;;;;;;;29.75;13.35;;;;;;;;;;5073834;28;20043;-82
2023/07/02 11:46:32;;;;;;;31.55;13.48;;;;;;;;;;5074371;28;20482;-81
2023/07/02 11:48:59;;;;;;;32.47;13.73;;;;;;;;;;5075078;28;20135;-80
2023/07/02 11:51:25;;;;;;;25.48;10.55;;;;;;;;;;5093923;28;20075;-80
2023/07/02 11:53:51;;;;;;;26.70;11.10;;;;;;;;;;5079219;28;20032;-80
2023/07/02 11:56:17;;;;;;;29.55;10.93;;;;;;;;;;5075484;28;20072;-80
2023/07/02 11:58:43;;;;;;;26.50;10.95;;;;;;;;;;5075609;28;20048;-80
2023/07/02 12:01:10;;;;;;;28.02;10.90;;;;;;;;;;5079078;28;20037;-80
2023/07/02 12:03:36;;;;;;;25.40;11.65;;;;;;;;;;5077627;28;20065;-80
2023/07/02 12:06:02;;;;;;;20.42;9.68;;;;;;;;;;5072055;28;20021;-81
2023/07/02 12:08:28;;;;;;;21.13;9.38;;;;;;;;;;5074778;28;20033;-80
2023/07/02 12:10:54;;;;;;;19.75;9.20;;;;;;;;;;5068943;28;20601;-79
2023/07/02 12:13:23;;;;;;;22.92;9.05;;;;;;;;;;5074032;28;20036;-79
2023/07/02 12:15:51;;;;;;;23.92;8.68;;;;;;;;;;5077553;28;20021;-81
2023/07/02 12:18:17;;;;;;;19.17;7.57;;;;;;;;;;5071127;28;20037;-82
2023/07/02 12:20:43;;;;;;;21.02;8.93;;;;;;;;;;5076454;28;20039;-80
2023/07/02 12:23:11;;;;;;;19.48;8.30;;;;;;;;;;5074123;28;20031;-80
2023/07/02 12:25:37;;;;;;;19.02;7.97;;;;;;;;;;5073779;28;20021;-81
2023/07/02 12:28:06;;;;;;;17.98;8.38;;;;;;;;;;5075197;28;20029;-80
2023/07/02 12:30:32;;;;;;;19.98;8.13;;;;;;;;;;5074918;28;20026;-80
2023/07/02 12:32:58;;;;;;;20.95;7.97;;;;;;;;;;5076953;28;20064;-79
2023/07/02 12:35:24;;;;;;;22.00;7.97;;;;;;;;;;5075951;28;20151;-80
2023/07/02 12:37:51;;;;;;;19.35;8.40;;;;;;;;;;5076606;28;20040;-81
2023/07/02 12:40:18;;;;;;;22.77;7.43;;;;;;;;;;5074062;28;20018;-79
2023/07/02 12:42:44;;;;;;;19.40;7.75;;;;;;;;;;5074426;28;20046;-80
2023/07/02 12:45:20;;;;;;;17.98;7.40;;;;;;;;;;5077337;28;20029;-80
2023/07/02 12:47:46;;;;;;;16.75;7.18;;;;;;;;;;5071367;28;20045;-79
2023/07/02 12:50:12;;;;;;;20.73;8.38;;;;;;;;;;5070986;28;20043;-80
2023/07/02 12:52:38;;;;;;;14.52;7.57;;;;;;;;;;5073040;28;20044;-80
2023/07/02 12:55:04;;;;;;;21.73;8.07;;;;;;;;;;5073621;28;20024;-79
2023/07/02 12:57:30;;;;;;;17.77;8.13;;;;;;;;;;5076247;28;20028;-79
2023/07/02 12:59:57;;;;;;;23.77;9.30;;;;;;;;;;5071619;28;20025;-79
2023/07/02 13:02:23;;;;;;;27.25;10.02;;;;;;;;;;5072842;28;20024;-80
2023/07/02 13:04:50;;;;;;;19.52;8.88;;;;;;;;;;5068658;28;20621;-80
2023/07/02 13:07:16;;;;;;;23.70;10.52;;;;;;;;;;5074071;28;20108;-80
2023/07/02 13:09:42;;;;;;;24.27;9.48;;;;;;;;;;5074127;28;20096;-79
2023/07/02 13:12:09;;;;;;;24.90;9.60;;;;;;;;;;5074836;28;20025;-79
2023/07/02 13:14:35;;;;;;;22.33;9.57;;;;;;;;;;5074181;28;20043;-79
2023/07/02 13:17:03;;;;;;;20.85;9.68;;;;;;;;;;5064081;28;20063;-78
2023/07/02 13:19:29;;;;;;;19.30;9.88;;;;;;;;;;5065546;28;20021;-79
2023/07/02 13:21:55;;;;;;;24.27;11.52;;;;;;;;;;5052134;28;20033;-79
2023/07/02 13:24:21;;;;;;;24.92;10.20;;;;;;;;;;5065654;28;20028;-79
2023/07/02 13:26:47;;;;;;;22.35;10.20;;;;;;;;;;5057864;28;20025;-79
2023/07/02 13:29:13;;;;;;;27.38;10.57;;;;;;;;;;5057334;28;20051;-79
2023/07/02 13:31:39;;;;;;;21.05;9.48;;;;;;;;;;5053304;28;20036;-79
2023/07/02 13:34:05;;;;;;;21.85;10.02;;;;;;;;;;5064543;28;20048;-79
2023/07/02 13:36:31;;;;;;;23.52;9.82;;;;;;;;;;5043523;28;20104;-81
2023/07/02 13:38:57;;;;;;;27.75;10.48;;;;;;;;;;5042735;28;20513;-79
2023/07/02 13:41:23;;;;;;;25.42;10.93;;;;;;;;;;5048718;28;20136;-82
2023/07/02 13:43:51;;;;;;;19.83;10.82;;;;;;;;;;5072027;28;20072;-80
2023/07/02 13:46:17;;;;;;;27.35;10.68;;;;;;;;;;5075980;28;20038;-79
2023/07/02 13:48:43;;;;;;;29.80;10.82;;;;;;;;;;5055094;28;20041;-79
2023/07/02 13:51:15;;;;;;;22.38;10.77;;;;;;;;;;5062430;28;20105;-80
2023/07/02 13:53:41;;;;;;;24.10;9.75;;;;;;;;;;5059170;28;20075;-79
2023/07/02 13:56:06;;;;;;;19.30;9.18;;;;;;;;;;5051989;28;20038;-80
2023/07/02 13:58:51;;;;;;;18.33;9.23;;;;;;;;;;5046196;28;20048;-80
2023/07/02 14:01:17;;;;;;;21.10;9.77;;;;;;;;;;5044088;28;20093;-81
2023/07/02 14:03:43;;;;;;;24.60;10.15;;;;;;;;;;5052867;28;20168;-81
2023/07/02 14:06:10;;;;;;;24.38;10.30;;;;;;;;;;5044718;28;20774;-80
2023/07/02 14:08:36;;;;;;;24.83;10.00;;;;;;;;;;5040890;28;20482;-82
2023/07/02 14:11:02;;;;;;;19.92;9.23;;;;;;;;;;5044611;28;20033;-80
2023/07/02 14:13:28;;;;;;;27.27;10.93;;;;;;;;;;5047909;28;20021;-80
2023/07/02 14:15:54;;;;;;;24.25;10.48;;;;;;;;;;5056226;28;20365;-80
2023/07/02 14:18:20;;;;;;;20.17;9.65;;;;;;;;;;5054229;28;20039;-82
2023/07/02 14:20:46;;;;;;;21.60;10.68;;;;;;;;;;5040974;28;20056;-83
2023/07/02 14:23:14;;;;;;;22.52;10.35;;;;;;;;;;5046247;28;20083;-82
2023/07/02 14:25:40;;;;;;;21.90;10.00;;;;;;;;;;5043469;28;20025;-84
2023/07/02 14:28:06;;;;;;;23.27;10.48;;;;;;;;;;5045866;28;20094;-84
2023/07/02 14:30:32;;;;;;;21.05;10.45;;;;;;;;;;5051441;28;20402;-82
2023/07/02 14:32:58;;;;;;;20.05;10.38;;;;;;;;;;5044253;28;20091;-83